sensor_id;sensor_type;location;lat;lon;timestamp;P1;durP1;ratioP1;P2;durP2;ratioP2
9100;SDS011;4586;52.518;13.486;2022-08-05T00:01:42;2.88;;;2.67;;
9100;SDS011;4586;52.518;13.486;2022-08-05T00:05:43;3.75;;;3.20;;
9100;SDS011;4586;52.518;13.486;2022-08-05T00:09:44;2.83;;;2.63;;
9100;SDS011;4586;52.518;13.486;2022-08-05T00:13:45;2.95;;;2.72;;
9100;SDS011;4586;52.518;13.486;2022-08-05T00:17:46;4.63;;;3.33;;
9100;SDS011;4586;52.518;13.486;2022-08-05T00:21:47;2.78;;;2.58;;
9100;SDS011;4586;52.518;13.486;2022-08-05T00:25:48;4.38;;;2.72;;
9100;SDS011;4586;52.518;13.486;2022-08-05T00:29:49;4.05;;;2.88;;
9100;SDS011;4586;52.518;13.486;2022-08-05T00:33:50;2.83;;;2.60;;
9100;SDS011;4586;52.518;13.486;2022-08-05T00:37:51;4.00;;;2.78;;
9100;SDS011;4586;52.518;13.486;2022-08-05T00:41:52;3.13;;;2.83;;
9100;SDS011;4586;52.518;13.486;2022-08-05T00:45:53;3.13;;;2.83;;
9100;SDS011;4586;52.518;13.486;2022-08-05T00:49:54;3.08;;;2.78;;
9100;SDS011;4586;52.518;13.486;2022-08-05T00:53:55;2.85;;;2.65;;
9100;SDS011;4586;52.518;13.486;2022-08-05T00:57:56;3.10;;;2.80;;
9100;SDS011;4586;52.518;13.486;2022-08-05T01:01:57;3.42;;;2.92;;
9100;SDS011;4586;52.518;13.486;2022-08-05T01:05:58;3.17;;;2.92;;
9100;SDS011;4586;52.518;13.486;2022-08-05T01:09:59;3.92;;;2.90;;
9100;SDS011;4586;52.518;13.486;2022-08-05T01:18:21;3.38;;;2.88;;
9100;SDS011;4586;52.518;13.486;2022-08-05T01:26:45;4.45;;;2.90;;
9100;SDS011;4586;52.518;13.486;2022-08-05T01:30:56;4.28;;;3.25;;
9100;SDS011;4586;52.518;13.486;2022-08-05T01:35:05;3.20;;;2.88;;
9100;SDS011;4586;52.518;13.486;2022-08-05T01:39:07;3.35;;;2.85;;
9100;SDS011;4586;52.518;13.486;2022-08-05T01:43:09;4.63;;;3.00;;
9100;SDS011;4586;52.518;13.486;2022-08-05T01:47:11;3.28;;;2.97;;
9100;SDS011;4586;52.518;13.486;2022-08-05T01:51:13;3.20;;;2.90;;
9100;SDS011;4586;52.518;13.486;2022-08-05T01:55:17;3.20;;;2.90;;
9100;SDS011;4586;52.518;13.486;2022-08-05T01:59:19;3.67;;;3.38;;
9100;SDS011;4586;52.518;13.486;2022-08-05T02:07:25;3.67;;;3.17;;
9100;SDS011;4586;52.518;13.486;2022-08-05T02:11:29;3.38;;;3.08;;
9100;SDS011;4586;52.518;13.486;2022-08-05T02:15:36;3.45;;;2.90;;
9100;SDS011;4586;52.518;13.486;2022-08-05T02:19:44;4.22;;;3.83;;
9100;SDS011;4586;52.518;13.486;2022-08-05T02:23:49;4.53;;;3.08;;
9100;SDS011;4586;52.518;13.486;2022-08-05T02:27:51;3.67;;;3.38;;
9100;SDS011;4586;52.518;13.486;2022-08-05T02:31:55;3.38;;;3.08;;
9100;SDS011;4586;52.518;13.486;2022-08-05T02:35:57;4.32;;;3.92;;
9100;SDS011;4586;52.518;13.486;2022-08-05T02:40:00;4.82;;;3.80;;
9100;SDS011;4586;52.518;13.486;2022-08-05T02:44:02;5.30;;;4.22;;
9100;SDS011;4586;52.518;13.486;2022-08-05T02:48:03;5.03;;;3.22;;
9100;SDS011;4586;52.518;13.486;2022-08-05T02:52:06;3.63;;;3.25;;
9100;SDS011;4586;52.518;13.486;2022-08-05T02:56:08;3.75;;;3.42;;
9100;SDS011;4586;52.518;13.486;2022-08-05T03:00:10;3.80;;;3.42;;
9100;SDS011;4586;52.518;13.486;2022-08-05T03:04:12;3.60;;;3.13;;
9100;SDS011;4586;52.518;13.486;2022-08-05T03:08:14;3.80;;;3.45;;
9100;SDS011;4586;52.518;13.486;2022-08-05T03:12:28;3.53;;;3.15;;
9100;SDS011;4586;52.518;13.486;2022-08-05T03:16:29;6.15;;;3.45;;
9100;SDS011;4586;52.518;13.486;2022-08-05T03:20:30;3.38;;;3.08;;
9100;SDS011;4586;52.518;13.486;2022-08-05T03:24:31;3.17;;;2.80;;
9100;SDS011;4586;52.518;13.486;2022-08-05T03:28:32;3.53;;;2.65;;
9100;SDS011;4586;52.518;13.486;2022-08-05T03:32:33;2.63;;;2.40;;
9100;SDS011;4586;52.518;13.486;2022-08-05T03:36:34;2.80;;;2.60;;
9100;SDS011;4586;52.518;13.486;2022-08-05T03:40:38;2.97;;;2.70;;
9100;SDS011;4586;52.518;13.486;2022-08-05T03:44:39;2.85;;;2.50;;
9100;SDS011;4586;52.518;13.486;2022-08-05T03:48:40;2.63;;;2.40;;
9100;SDS011;4586;52.518;13.486;2022-08-05T03:56:54;2.72;;;2.53;;
9100;SDS011;4586;52.518;13.486;2022-08-05T04:00:56;3.53;;;2.33;;
9100;SDS011;4586;52.518;13.486;2022-08-05T04:04:59;2.67;;;2.45;;
9100;SDS011;4586;52.518;13.486;2022-08-05T04:09:01;3.90;;;2.50;;
9100;SDS011;4586;52.518;13.486;2022-08-05T04:13:02;3.75;;;2.75;;
9100;SDS011;4586;52.518;13.486;2022-08-05T04:17:03;2.58;;;2.38;;
9100;SDS011;4586;52.518;13.486;2022-08-05T04:21:05;2.90;;;2.53;;
9100;SDS011;4586;52.518;13.486;2022-08-05T04:25:07;2.75;;;2.55;;
9100;SDS011;4586;52.518;13.486;2022-08-05T04:29:08;2.97;;;2.55;;
9100;SDS011;4586;52.518;13.486;2022-08-05T04:33:09;2.65;;;2.45;;
9100;SDS011;4586;52.518;13.486;2022-08-05T04:37:10;2.95;;;2.65;;
9100;SDS011;4586;52.518;13.486;2022-08-05T04:41:11;3.72;;;2.80;;
9100;SDS011;4586;52.518;13.486;2022-08-05T04:45:12;2.83;;;2.33;;
9100;SDS011;4586;52.518;13.486;2022-08-05T04:49:13;4.43;;;2.78;;
9100;SDS011;4586;52.518;13.486;2022-08-05T04:53:15;4.35;;;2.78;;
9100;SDS011;4586;52.518;13.486;2022-08-05T04:57:16;3.63;;;2.70;;
9100;SDS011;4586;52.518;13.486;2022-08-05T05:01:17;2.53;;;2.28;;
9100;SDS011;4586;52.518;13.486;2022-08-05T05:05:18;2.65;;;2.45;;
9100;SDS011;4586;52.518;13.486;2022-08-05T05:09:19;3.90;;;3.15;;
9100;SDS011;4586;52.518;13.486;2022-08-05T05:13:20;2.85;;;2.55;;
9100;SDS011;4586;52.518;13.486;2022-08-05T05:17:21;4.32;;;2.80;;
9100;SDS011;4586;52.518;13.486;2022-08-05T05:21:22;4.28;;;2.47;;
9100;SDS011;4586;52.518;13.486;2022-08-05T05:25:23;3.38;;;2.45;;
9100;SDS011;4586;52.518;13.486;2022-08-05T05:29:24;3.22;;;2.72;;
9100;SDS011;4586;52.518;13.486;2022-08-05T05:33:25;4.45;;;3.15;;
9100;SDS011;4586;52.518;13.486;2022-08-05T05:37:26;2.97;;;2.72;;
9100;SDS011;4586;52.518;13.486;2022-08-05T05:41:27;3.60;;;2.90;;
9100;SDS011;4586;52.518;13.486;2022-08-05T05:45:28;2.88;;;2.60;;
9100;SDS011;4586;52.518;13.486;2022-08-05T05:49:29;2.80;;;2.60;;
9100;SDS011;4586;52.518;13.486;2022-08-05T05:53:30;4.47;;;2.85;;
9100;SDS011;4586;52.518;13.486;2022-08-05T05:57:31;4.57;;;2.47;;
9100;SDS011;4586;52.518;13.486;2022-08-05T06:01:33;3.53;;;3.08;;
9100;SDS011;4586;52.518;13.486;2022-08-05T06:05:34;4.13;;;2.67;;
9100;SDS011;4586;52.518;13.486;2022-08-05T06:09:35;3.53;;;2.72;;
9100;SDS011;4586;52.518;13.486;2022-08-05T06:13:36;3.05;;;2.75;;
9100;SDS011;4586;52.518;13.486;2022-08-05T06:17:37;2.67;;;2.47;;
9100;SDS011;4586;52.518;13.486;2022-08-05T06:21:38;5.68;;;2.92;;
9100;SDS011;4586;52.518;13.486;2022-08-05T06:25:39;2.90;;;2.60;;
9100;SDS011;4586;52.518;13.486;2022-08-05T06:29:40;2.85;;;2.55;;
9100;SDS011;4586;52.518;13.486;2022-08-05T06:33:41;2.80;;;2.40;;
9100;SDS011;4586;52.518;13.486;2022-08-05T06:37:42;5.57;;;2.75;;
9100;SDS011;4586;52.518;13.486;2022-08-05T06:41:43;2.95;;;2.50;;
9100;SDS011;4586;52.518;13.486;2022-08-05T06:45:46;2.22;;;2.03;;
9100;SDS011;4586;52.518;13.486;2022-08-05T06:49:47;2.55;;;1.90;;
9100;SDS011;4586;52.518;13.486;2022-08-05T06:53:48;2.25;;;1.85;;
9100;SDS011;4586;52.518;13.486;2022-08-05T06:57:49;2.88;;;2.58;;
9100;SDS011;4586;52.518;13.486;2022-08-05T07:01:50;2.25;;;2.05;;
9100;SDS011;4586;52.518;13.486;2022-08-05T07:05:51;2.00;;;1.80;;
9100;SDS011;4586;52.518;13.486;2022-08-05T07:09:52;3.20;;;1.85;;
9100;SDS011;4586;52.518;13.486;2022-08-05T07:13:53;2.38;;;1.85;;
9100;SDS011;4586;52.518;13.486;2022-08-05T07:17:54;2.45;;;2.05;;
9100;SDS011;4586;52.518;13.486;2022-08-05T07:21:55;1.75;;;1.50;;
9100;SDS011;4586;52.518;13.486;2022-08-05T07:25:56;2.47;;;1.85;;
9100;SDS011;4586;52.518;13.486;2022-08-05T07:29:57;1.98;;;1.75;;
9100;SDS011;4586;52.518;13.486;2022-08-05T07:33:58;1.90;;;1.50;;
9100;SDS011;4586;52.518;13.486;2022-08-05T07:37:59;2.88;;;2.08;;
9100;SDS011;4586;52.518;13.486;2022-08-05T07:42:00;1.75;;;1.58;;
9100;SDS011;4586;52.518;13.486;2022-08-05T07:46:01;2.05;;;1.85;;
9100;SDS011;4586;52.518;13.486;2022-08-05T07:50:02;1.73;;;1.63;;
9100;SDS011;4586;52.518;13.486;2022-08-05T07:54:03;1.92;;;1.55;;
9100;SDS011;4586;52.518;13.486;2022-08-05T07:58:04;1.77;;;1.50;;
9100;SDS011;4586;52.518;13.486;2022-08-05T08:02:06;2.80;;;1.60;;
9100;SDS011;4586;52.518;13.486;2022-08-05T08:06:07;1.83;;;1.70;;
9100;SDS011;4586;52.518;13.486;2022-08-05T08:10:08;1.52;;;1.30;;
9100;SDS011;4586;52.518;13.486;2022-08-05T08:14:09;1.65;;;1.40;;
9100;SDS011;4586;52.518;13.486;2022-08-05T08:18:10;1.35;;;1.25;;
9100;SDS011;4586;52.518;13.486;2022-08-05T08:22:11;1.60;;;1.50;;
9100;SDS011;4586;52.518;13.486;2022-08-05T08:26:12;1.58;;;1.48;;
9100;SDS011;4586;52.518;13.486;2022-08-05T08:30:13;1.25;;;1.15;;
9100;SDS011;4586;52.518;13.486;2022-08-05T08:34:15;2.97;;;1.60;;
9100;SDS011;4586;52.518;13.486;2022-08-05T08:38:16;2.05;;;1.25;;
9100;SDS011;4586;52.518;13.486;2022-08-05T08:42:17;1.60;;;1.40;;
9100;SDS011;4586;52.518;13.486;2022-08-05T08:46:18;2.08;;;1.40;;
9100;SDS011;4586;52.518;13.486;2022-08-05T08:50:20;1.83;;;1.33;;
9100;SDS011;4586;52.518;13.486;2022-08-05T08:54:21;2.53;;;1.42;;
9100;SDS011;4586;52.518;13.486;2022-08-05T08:58:22;1.23;;;1.17;;
9100;SDS011;4586;52.518;13.486;2022-08-05T09:02:23;1.60;;;1.45;;
9100;SDS011;4586;52.518;13.486;2022-08-05T09:06:25;1.52;;;1.23;;
9100;SDS011;4586;52.518;13.486;2022-08-05T09:10:27;1.35;;;1.20;;
9100;SDS011;4586;52.518;13.486;2022-08-05T09:14:29;1.70;;;1.20;;
9100;SDS011;4586;52.518;13.486;2022-08-05T09:18:30;2.58;;;1.40;;
9100;SDS011;4586;52.518;13.486;2022-08-05T09:23:01;1.40;;;1.17;;
9100;SDS011;4586;52.518;13.486;2022-08-05T09:26:58;1.55;;;1.40;;
9100;SDS011;4586;52.518;13.486;2022-08-05T09:31:10;1.85;;;1.50;;
9100;SDS011;4586;52.518;13.486;2022-08-05T09:35:12;2.42;;;1.75;;
9100;SDS011;4586;52.518;13.486;2022-08-05T09:39:13;3.00;;;1.33;;
9100;SDS011;4586;52.518;13.486;2022-08-05T09:43:34;1.55;;;1.35;;
9100;SDS011;4586;52.518;13.486;2022-08-05T09:47:38;3.42;;;1.48;;
9100;SDS011;4586;52.518;13.486;2022-08-05T09:51:40;1.30;;;1.20;;
9100;SDS011;4586;52.518;13.486;2022-08-05T09:55:41;2.72;;;2.17;;
9100;SDS011;4586;52.518;13.486;2022-08-05T09:59:42;2.65;;;1.30;;
9100;SDS011;4586;52.518;13.486;2022-08-05T10:03:56;4.47;;;2.40;;
9100;SDS011;4586;52.518;13.486;2022-08-05T10:07:59;1.40;;;1.23;;
9100;SDS011;4586;52.518;13.486;2022-08-05T10:12:09;3.20;;;1.48;;
9100;SDS011;4586;52.518;13.486;2022-08-05T10:16:27;1.52;;;1.38;;
9100;SDS011;4586;52.518;13.486;2022-08-05T10:20:28;2.50;;;1.50;;
9100;SDS011;4586;52.518;13.486;2022-08-05T10:24:31;1.60;;;1.40;;
9100;SDS011;4586;52.518;13.486;2022-08-05T10:28:32;2.20;;;1.45;;
9100;SDS011;4586;52.518;13.486;2022-08-05T10:32:34;1.98;;;1.63;;
9100;SDS011;4586;52.518;13.486;2022-08-05T10:36:35;4.03;;;1.77;;
9100;SDS011;4586;52.518;13.486;2022-08-05T10:40:37;2.25;;;1.65;;
9100;SDS011;4586;52.518;13.486;2022-08-05T10:44:42;14.30;;;8.77;;
9100;SDS011;4586;52.518;13.486;2022-08-05T10:48:45;2.95;;;1.75;;
9100;SDS011;4586;52.518;13.486;2022-08-05T10:52:48;2.35;;;1.80;;
9100;SDS011;4586;52.518;13.486;2022-08-05T10:56:52;2.70;;;2.00;;
9100;SDS011;4586;52.518;13.486;2022-08-05T11:00:54;4.35;;;2.58;;
9100;SDS011;4586;52.518;13.486;2022-08-05T11:04:55;1.80;;;1.70;;
9100;SDS011;4586;52.518;13.486;2022-08-05T11:13:23;2.33;;;2.10;;
9100;SDS011;4586;52.518;13.486;2022-08-05T11:17:33;1.63;;;1.52;;
9100;SDS011;4586;52.518;13.486;2022-08-05T11:21:35;1.85;;;1.65;;
9100;SDS011;4586;52.518;13.486;2022-08-05T11:25:36;1.88;;;1.30;;
9100;SDS011;4586;52.518;13.486;2022-08-05T11:29:38;2.53;;;2.15;;
9100;SDS011;4586;52.518;13.486;2022-08-05T11:41:53;2.17;;;1.38;;
9100;SDS011;4586;52.518;13.486;2022-08-05T11:45:56;1.23;;;1.13;;
9100;SDS011;4586;52.518;13.486;2022-08-05T11:49:58;1.38;;;1.27;;
9100;SDS011;4586;52.518;13.486;2022-08-05T11:53:59;3.25;;;1.30;;
9100;SDS011;4586;52.518;13.486;2022-08-05T11:58:00;1.48;;;1.20;;
9100;SDS011;4586;52.518;13.486;2022-08-05T12:02:05;1.08;;;0.98;;
9100;SDS011;4586;52.518;13.486;2022-08-05T12:06:06;1.25;;;1.15;;
9100;SDS011;4586;52.518;13.486;2022-08-05T12:10:08;3.00;;;1.45;;
9100;SDS011;4586;52.518;13.486;2022-08-05T12:14:12;1.63;;;1.50;;
9100;SDS011;4586;52.518;13.486;2022-08-05T12:18:16;2.30;;;1.55;;
9100;SDS011;4586;52.518;13.486;2022-08-05T12:22:19;2.13;;;1.60;;
9100;SDS011;4586;52.518;13.486;2022-08-05T12:26:20;3.45;;;1.90;;
9100;SDS011;4586;52.518;13.486;2022-08-05T12:30:21;1.88;;;1.70;;
9100;SDS011;4586;52.518;13.486;2022-08-05T12:34:23;1.30;;;1.20;;
9100;SDS011;4586;52.518;13.486;2022-08-05T12:38:25;1.65;;;1.42;;
9100;SDS011;4586;52.518;13.486;2022-08-05T12:42:29;2.00;;;1.58;;
9100;SDS011;4586;52.518;13.486;2022-08-05T12:46:32;2.30;;;1.63;;
9100;SDS011;4586;52.518;13.486;2022-08-05T12:50:33;2.35;;;1.45;;
9100;SDS011;4586;52.518;13.486;2022-08-05T12:54:34;5.00;;;1.25;;
9100;SDS011;4586;52.518;13.486;2022-08-05T12:58:35;1.42;;;1.33;;
9100;SDS011;4586;52.518;13.486;2022-08-05T13:02:36;1.90;;;1.40;;
9100;SDS011;4586;52.518;13.486;2022-08-05T13:06:39;3.38;;;1.70;;
9100;SDS011;4586;52.518;13.486;2022-08-05T13:10:43;2.25;;;1.40;;
9100;SDS011;4586;52.518;13.486;2022-08-05T13:14:45;1.63;;;1.40;;
9100;SDS011;4586;52.518;13.486;2022-08-05T13:18:53;2.03;;;1.48;;
9100;SDS011;4586;52.518;13.486;2022-08-05T13:22:54;1.83;;;1.50;;
9100;SDS011;4586;52.518;13.486;2022-08-05T13:26:55;3.72;;;1.40;;
9100;SDS011;4586;52.518;13.486;2022-08-05T13:30:56;1.30;;;1.20;;
9100;SDS011;4586;52.518;13.486;2022-08-05T13:34:57;1.50;;;1.08;;
9100;SDS011;4586;52.518;13.486;2022-08-05T13:38:58;1.27;;;1.17;;
9100;SDS011;4586;52.518;13.486;2022-08-05T13:42:59;1.30;;;0.82;;
9100;SDS011;4586;52.518;13.486;2022-08-05T13:47:01;1.35;;;1.25;;
9100;SDS011;4586;52.518;13.486;2022-08-05T13:51:09;3.83;;;1.15;;
9100;SDS011;4586;52.518;13.486;2022-08-05T13:55:10;1.40;;;1.30;;
9100;SDS011;4586;52.518;13.486;2022-08-05T13:59:11;1.85;;;1.35;;
9100;SDS011;4586;52.518;13.486;2022-08-05T14:03:12;1.30;;;1.05;;
9100;SDS011;4586;52.518;13.486;2022-08-05T14:07:13;1.45;;;1.35;;
9100;SDS011;4586;52.518;13.486;2022-08-05T14:11:14;1.60;;;1.27;;
9100;SDS011;4586;52.518;13.486;2022-08-05T14:15:15;1.70;;;1.40;;
9100;SDS011;4586;52.518;13.486;2022-08-05T14:19:16;1.90;;;1.52;;
9100;SDS011;4586;52.518;13.486;2022-08-05T14:23:17;1.15;;;1.05;;
9100;SDS011;4586;52.518;13.486;2022-08-05T14:27:18;1.33;;;1.20;;
9100;SDS011;4586;52.518;13.486;2022-08-05T14:31:19;2.00;;;1.40;;
9100;SDS011;4586;52.518;13.486;2022-08-05T14:35:20;1.40;;;1.25;;
9100;SDS011;4586;52.518;13.486;2022-08-05T14:39:21;2.05;;;1.50;;
9100;SDS011;4586;52.518;13.486;2022-08-05T14:43:22;1.67;;;1.58;;
9100;SDS011;4586;52.518;13.486;2022-08-05T14:47:23;1.98;;;1.77;;
9100;SDS011;4586;52.518;13.486;2022-08-05T14:51:24;1.67;;;1.33;;
9100;SDS011;4586;52.518;13.486;2022-08-05T14:55:26;2.10;;;1.75;;
9100;SDS011;4586;52.518;13.486;2022-08-05T14:59:27;1.42;;;1.33;;
9100;SDS011;4586;52.518;13.486;2022-08-05T15:03:28;5.60;;;2.25;;
9100;SDS011;4586;52.518;13.486;2022-08-05T15:07:29;2.03;;;1.83;;
9100;SDS011;4586;52.518;13.486;2022-08-05T15:11:31;1.42;;;1.33;;
9100;SDS011;4586;52.518;13.486;2022-08-05T15:15:32;3.50;;;1.60;;
9100;SDS011;4586;52.518;13.486;2022-08-05T15:19:33;1.55;;;1.45;;
9100;SDS011;4586;52.518;13.486;2022-08-05T15:23:34;2.10;;;1.75;;
9100;SDS011;4586;52.518;13.486;2022-08-05T15:27:35;2.30;;;2.10;;
9100;SDS011;4586;52.518;13.486;2022-08-05T15:31:36;2.13;;;1.85;;
9100;SDS011;4586;52.518;13.486;2022-08-05T15:35:37;2.08;;;1.88;;
9100;SDS011;4586;52.518;13.486;2022-08-05T15:39:38;2.00;;;1.80;;
9100;SDS011;4586;52.518;13.486;2022-08-05T15:43:39;8.10;;;1.60;;
9100;SDS011;4586;52.518;13.486;2022-08-05T15:47:41;2.17;;;1.95;;
9100;SDS011;4586;52.518;13.486;2022-08-05T15:51:42;2.08;;;1.70;;
9100;SDS011;4586;52.518;13.486;2022-08-05T15:55:43;4.03;;;2.42;;
9100;SDS011;4586;52.518;13.486;2022-08-05T15:59:44;2.80;;;2.60;;
9100;SDS011;4586;52.518;13.486;2022-08-05T16:03:45;2.25;;;2.05;;
9100;SDS011;4586;52.518;13.486;2022-08-05T16:07:46;2.00;;;1.60;;
9100;SDS011;4586;52.518;13.486;2022-08-05T16:11:47;3.25;;;2.00;;
9100;SDS011;4586;52.518;13.486;2022-08-05T16:15:48;1.80;;;1.70;;
9100;SDS011;4586;52.518;13.486;2022-08-05T16:19:49;2.33;;;1.90;;
9100;SDS011;4586;52.518;13.486;2022-08-05T16:23:50;2.30;;;1.92;;
9100;SDS011;4586;52.518;13.486;2022-08-05T16:27:51;3.67;;;2.20;;
9100;SDS011;4586;52.518;13.486;2022-08-05T16:31:52;3.47;;;2.20;;
9100;SDS011;4586;52.518;13.486;2022-08-05T16:35:54;2.78;;;2.10;;
9100;SDS011;4586;52.518;13.486;2022-08-05T16:39:55;2.65;;;2.33;;
9100;SDS011;4586;52.518;13.486;2022-08-05T16:43:56;1.92;;;1.73;;
9100;SDS011;4586;52.518;13.486;2022-08-05T16:47:57;2.70;;;2.00;;
9100;SDS011;4586;52.518;13.486;2022-08-05T16:51:58;1.98;;;1.77;;
9100;SDS011;4586;52.518;13.486;2022-08-05T16:55:59;5.40;;;2.30;;
9100;SDS011;4586;52.518;13.486;2022-08-05T17:00:00;2.70;;;2.30;;
9100;SDS011;4586;52.518;13.486;2022-08-05T17:04:01;2.85;;;2.65;;
9100;SDS011;4586;52.518;13.486;2022-08-05T17:08:03;2.75;;;2.05;;
9100;SDS011;4586;52.518;13.486;2022-08-05T17:12:04;2.25;;;2.00;;
9100;SDS011;4586;52.518;13.486;2022-08-05T17:16:05;2.75;;;2.22;;
9100;SDS011;4586;52.518;13.486;2022-08-05T17:20:07;3.13;;;1.80;;
9100;SDS011;4586;52.518;13.486;2022-08-05T17:24:08;3.83;;;2.42;;
9100;SDS011;4586;52.518;13.486;2022-08-05T17:28:09;1.25;;;1.15;;
9100;SDS011;4586;52.518;13.486;2022-08-05T17:32:10;2.10;;;1.10;;
9100;SDS011;4586;52.518;13.486;2022-08-05T17:36:11;0.88;;;0.88;;
9100;SDS011;4586;52.518;13.486;2022-08-05T17:40:13;1.00;;;0.90;;
9100;SDS011;4586;52.518;13.486;2022-08-05T17:44:14;2.38;;;1.13;;
9100;SDS011;4586;52.518;13.486;2022-08-05T17:48:15;1.63;;;1.00;;
9100;SDS011;4586;52.518;13.486;2022-08-05T17:52:16;1.70;;;1.38;;
9100;SDS011;4586;52.518;13.486;2022-08-05T17:56:17;0.88;;;0.75;;
9100;SDS011;4586;52.518;13.486;2022-08-05T18:00:18;1.55;;;0.68;;
9100;SDS011;4586;52.518;13.486;2022-08-05T18:04:19;1.13;;;0.85;;
9100;SDS011;4586;52.518;13.486;2022-08-05T18:08:20;0.77;;;0.63;;
9100;SDS011;4586;52.518;13.486;2022-08-05T18:12:21;0.40;;;0.40;;
9100;SDS011;4586;52.518;13.486;2022-08-05T18:16:22;0.77;;;0.60;;
9100;SDS011;4586;52.518;13.486;2022-08-05T18:20:23;0.30;;;0.30;;
9100;SDS011;4586;52.518;13.486;2022-08-05T18:24:24;0.32;;;0.30;;
9100;SDS011;4586;52.518;13.486;2022-08-05T18:28:26;3.20;;;1.02;;
9100;SDS011;4586;52.518;13.486;2022-08-05T18:32:27;2.78;;;1.45;;
9100;SDS011;4586;52.518;13.486;2022-08-05T18:36:28;1.35;;;0.95;;
9100;SDS011;4586;52.518;13.486;2022-08-05T18:40:29;0.57;;;0.50;;
9100;SDS011;4586;52.518;13.486;2022-08-05T18:44:29;0.88;;;0.57;;
9100;SDS011;4586;52.518;13.486;2022-08-05T18:48:31;0.90;;;0.60;;
9100;SDS011;4586;52.518;13.486;2022-08-05T18:52:32;0.77;;;0.45;;
9100;SDS011;4586;52.518;13.486;2022-08-05T18:56:33;0.63;;;0.40;;
9100;SDS011;4586;52.518;13.486;2022-08-05T19:00:34;0.40;;;0.30;;
9100;SDS011;4586;52.518;13.486;2022-08-05T19:04:35;0.40;;;0.40;;
9100;SDS011;4586;52.518;13.486;2022-08-05T19:08:36;0.70;;;0.50;;
9100;SDS011;4586;52.518;13.486;2022-08-05T19:12:37;0.70;;;0.70;;
9100;SDS011;4586;52.518;13.486;2022-08-05T19:16:38;0.77;;;0.55;;
9100;SDS011;4586;52.518;13.486;2022-08-05T19:20:40;0.95;;;0.68;;
9100;SDS011;4586;52.518;13.486;2022-08-05T19:24:44;2.83;;;1.17;;
9100;SDS011;4586;52.518;13.486;2022-08-05T19:28:45;0.30;;;0.30;;
9100;SDS011;4586;52.518;13.486;2022-08-05T19:32:46;0.60;;;0.60;;
9100;SDS011;4586;52.518;13.486;2022-08-05T19:36:47;1.00;;;0.65;;
9100;SDS011;4586;52.518;13.486;2022-08-05T19:40:48;1.52;;;0.63;;
9100;SDS011;4586;52.518;13.486;2022-08-05T19:44:50;0.65;;;0.60;;
9100;SDS011;4586;52.518;13.486;2022-08-05T19:48:51;1.05;;;0.63;;
9100;SDS011;4586;52.518;13.486;2022-08-05T19:52:52;0.57;;;0.50;;
9100;SDS011;4586;52.518;13.486;2022-08-05T19:56:53;2.42;;;0.80;;
9100;SDS011;4586;52.518;13.486;2022-08-05T20:00:53;0.70;;;0.70;;
9100;SDS011;4586;52.518;13.486;2022-08-05T20:04:54;1.20;;;0.77;;
9100;SDS011;4586;52.518;13.486;2022-08-05T20:08:55;0.57;;;0.57;;
9100;SDS011;4586;52.518;13.486;2022-08-05T20:12:57;1.02;;;0.70;;
9100;SDS011;4586;52.518;13.486;2022-08-05T20:16:58;0.60;;;0.60;;
9100;SDS011;4586;52.518;13.486;2022-08-05T20:20:59;0.80;;;0.47;;
9100;SDS011;4586;52.518;13.486;2022-08-05T20:25:00;1.20;;;0.50;;
9100;SDS011;4586;52.518;13.486;2022-08-05T20:29:01;0.80;;;0.63;;
9100;SDS011;4586;52.518;13.486;2022-08-05T20:33:02;1.67;;;1.00;;
9100;SDS011;4586;52.518;13.486;2022-08-05T20:37:03;1.02;;;0.70;;
9100;SDS011;4586;52.518;13.486;2022-08-05T20:41:04;1.08;;;0.75;;
9100;SDS011;4586;52.518;13.486;2022-08-05T20:45:05;0.85;;;0.65;;
9100;SDS011;4586;52.518;13.486;2022-08-05T20:49:06;0.47;;;0.47;;
9100;SDS011;4586;52.518;13.486;2022-08-05T20:53:07;1.90;;;0.60;;
9100;SDS011;4586;52.518;13.486;2022-08-05T20:57:08;0.60;;;0.60;;
9100;SDS011;4586;52.518;13.486;2022-08-05T21:01:09;0.75;;;0.73;;
9100;SDS011;4586;52.518;13.486;2022-08-05T21:05:10;0.70;;;0.70;;
9100;SDS011;4586;52.518;13.486;2022-08-05T21:09:12;0.80;;;0.80;;
9100;SDS011;4586;52.518;13.486;2022-08-05T21:13:13;0.70;;;0.65;;
9100;SDS011;4586;52.518;13.486;2022-08-05T21:17:14;0.98;;;0.80;;
9100;SDS011;4586;52.518;13.486;2022-08-05T21:21:15;2.00;;;0.90;;
9100;SDS011;4586;52.518;13.486;2022-08-05T21:25:16;2.20;;;1.10;;
9100;SDS011;4586;52.518;13.486;2022-08-05T21:29:17;1.38;;;0.93;;
9100;SDS011;4586;52.518;13.486;2022-08-05T21:33:18;2.28;;;0.90;;
9100;SDS011;4586;52.518;13.486;2022-08-05T21:37:19;1.33;;;0.90;;
9100;SDS011;4586;52.518;13.486;2022-08-05T21:41:20;1.48;;;1.08;;
9100;SDS011;4586;52.518;13.486;2022-08-05T21:45:21;2.10;;;0.80;;
9100;SDS011;4586;52.518;13.486;2022-08-05T21:49:22;1.05;;;0.90;;
9100;SDS011;4586;52.518;13.486;2022-08-05T21:53:23;0.68;;;0.68;;
9100;SDS011;4586;52.518;13.486;2022-08-05T21:57:24;0.88;;;0.80;;
9100;SDS011;4586;52.518;13.486;2022-08-05T22:01:25;0.93;;;0.90;;
9100;SDS011;4586;52.518;13.486;2022-08-05T22:05:26;0.80;;;0.80;;
9100;SDS011;4586;52.518;13.486;2022-08-05T22:09:27;0.80;;;0.80;;
9100;SDS011;4586;52.518;13.486;2022-08-05T22:13:28;0.70;;;0.70;;
9100;SDS011;4586;52.518;13.486;2022-08-05T22:17:29;0.73;;;0.73;;
9100;SDS011;4586;52.518;13.486;2022-08-05T22:21:30;1.83;;;0.80;;
9100;SDS011;4586;52.518;13.486;2022-08-05T22:25:31;0.80;;;0.80;;
9100;SDS011;4586;52.518;13.486;2022-08-05T22:29:32;0.80;;;0.80;;
9100;SDS011;4586;52.518;13.486;2022-08-05T22:33:33;1.30;;;0.80;;
9100;SDS011;4586;52.518;13.486;2022-08-05T22:37:34;1.20;;;0.88;;
9100;SDS011;4586;52.518;13.486;2022-08-05T22:41:35;1.13;;;0.95;;
9100;SDS011;4586;52.518;13.486;2022-08-05T22:45:36;0.68;;;0.65;;
9100;SDS011;4586;52.518;13.486;2022-08-05T22:49:37;0.70;;;0.70;;
9100;SDS011;4586;52.518;13.486;2022-08-05T22:53:38;1.00;;;0.70;;
9100;SDS011;4586;52.518;13.486;2022-08-05T22:57:39;1.63;;;0.82;;
9100;SDS011;4586;52.518;13.486;2022-08-05T23:01:40;0.75;;;0.75;;
9100;SDS011;4586;52.518;13.486;2022-08-05T23:05:41;1.00;;;0.90;;
9100;SDS011;4586;52.518;13.486;2022-08-05T23:09:42;0.73;;;0.70;;
9100;SDS011;4586;52.518;13.486;2022-08-05T23:13:43;0.60;;;0.60;;
9100;SDS011;4586;52.518;13.486;2022-08-05T23:17:44;2.15;;;0.80;;
9100;SDS011;4586;52.518;13.486;2022-08-05T23:21:45;1.20;;;0.82;;
9100;SDS011;4586;52.518;13.486;2022-08-05T23:25:46;0.60;;;0.60;;
9100;SDS011;4586;52.518;13.486;2022-08-05T23:29:47;0.98;;;0.90;;
9100;SDS011;4586;52.518;13.486;2022-08-05T23:33:48;0.82;;;0.63;;
9100;SDS011;4586;52.518;13.486;2022-08-05T23:37:49;1.02;;;0.93;;
9100;SDS011;4586;52.518;13.486;2022-08-05T23:41:50;0.47;;;0.47;;
9100;SDS011;4586;52.518;13.486;2022-08-05T23:45:51;0.50;;;0.50;;
9100;SDS011;4586;52.518;13.486;2022-08-05T23:49:52;0.82;;;0.80;;
9100;SDS011;4586;52.518;13.486;2022-08-05T23:53:53;0.40;;;0.40;;
9100;SDS011;4586;52.518;13.486;2022-08-05T23:57:54;0.63;;;0.63;;
